createdAt,value
2022-07-29T00:00:17.414Z,99287.20
2022-07-29T00:03:04.306Z,99285.60
2022-07-29T00:05:32.071Z,99284.40
2022-07-29T00:07:59.630Z,99283.80
2022-07-29T00:10:27.205Z,99279.20
2022-07-29T00:12:54.758Z,99282.00
2022-07-29T00:15:23.168Z,99284.60
2022-07-29T00:17:51.252Z,99284.80
2022-07-29T00:20:18.996Z,99293.60
2022-07-29T00:22:46.745Z,99289.20
2022-07-29T00:25:14.429Z,99295.20
2022-07-29T00:27:42.209Z,99289.80
2022-07-29T00:30:10.173Z,99294.00
2022-07-29T00:32:37.805Z,99289.20
2022-07-29T00:35:25.615Z,99289.60
2022-07-29T00:37:53.239Z,99286.40
2022-07-29T00:40:23.582Z,99287.60
2022-07-29T00:42:53.337Z,99286.20
2022-07-29T00:45:22.962Z,99288.80
2022-07-29T00:47:51.229Z,99280.60
2022-07-29T00:50:19.301Z,99276.00
2022-07-29T00:52:47.545Z,99276.60
2022-07-29T00:55:16.990Z,99280.40
2022-07-29T00:57:46.475Z,99279.60
2022-07-29T01:00:19.718Z,99277.80
2022-07-29T01:02:49.250Z,99282.20
2022-07-29T01:05:24.169Z,99280.20
2022-07-29T01:07:55.234Z,99280.40
2022-07-29T01:10:25.979Z,99274.20
2022-07-29T01:12:57.538Z,99274.00
2022-07-29T01:15:25.925Z,99276.20
2022-07-29T01:18:22.071Z,99278.00
2022-07-29T01:21:13.340Z,99281.20
2022-07-29T01:24:12.777Z,99278.40
2022-07-29T01:26:49.155Z,99277.20
2022-07-29T01:29:46.172Z,99274.00
2022-07-29T01:32:28.456Z,99271.20
2022-07-29T01:35:03.033Z,99266.60
2022-07-29T01:37:44.013Z,99261.20
2022-07-29T01:40:30.053Z,99260.80
2022-07-29T01:43:04.200Z,99259.80
2022-07-29T01:45:41.777Z,99258.40
2022-07-29T01:48:32.660Z,99255.20
2022-07-29T01:51:13.663Z,99247.00
2022-07-29T01:53:54.512Z,99247.80
2022-07-29T01:56:27.143Z,99247.00
2022-07-29T01:58:56.793Z,99249.40
2022-07-29T02:01:28.373Z,99253.00
2022-07-29T02:03:58.188Z,99253.40
2022-07-29T02:06:28.241Z,99253.80
2022-07-29T02:08:59.658Z,99253.40
2022-07-29T02:11:27.723Z,99250.20
2022-07-29T02:13:59.799Z,99246.40
2022-07-29T02:16:31.819Z,99244.60
2022-07-29T02:19:03.201Z,99249.20
2022-07-29T02:21:33.063Z,99244.60
2022-07-29T02:24:03.587Z,99240.80
2022-07-29T02:26:34.621Z,99243.60
2022-07-29T02:29:03.429Z,99241.00
2022-07-29T02:31:37.618Z,99242.20
2022-07-29T02:34:09.869Z,99244.20
2022-07-29T02:36:38.767Z,99237.40
2022-07-29T02:39:10.618Z,99235.80
2022-07-29T02:41:49.498Z,99235.20
2022-07-29T02:44:21.964Z,99236.00
2022-07-29T02:47:13.827Z,99236.40
2022-07-29T02:49:58.964Z,99231.60
2022-07-29T02:52:34.834Z,99232.40
2022-07-29T02:55:20.277Z,99229.60
2022-07-29T02:57:56.071Z,99222.40
2022-07-29T03:00:29.781Z,99220.60
2022-07-29T03:03:02.877Z,99217.00
2022-07-29T03:05:33.321Z,99213.00
2022-07-29T03:08:07.599Z,99209.20
2022-07-29T03:10:38.778Z,99206.20
2022-07-29T03:13:08.423Z,99215.60
2022-07-29T03:15:37.495Z,99217.60
2022-07-29T03:18:07.507Z,99218.00
2022-07-29T03:20:35.288Z,99218.40
2022-07-29T03:23:03.223Z,99222.40
2022-07-29T03:25:32.077Z,99222.80
2022-07-29T03:28:00.709Z,99225.60
2022-07-29T03:30:29.566Z,99224.60
2022-07-29T03:32:58.847Z,99222.20
2022-07-29T03:35:26.708Z,99217.00
2022-07-29T03:37:54.384Z,99219.60
2022-07-29T03:40:47.634Z,99216.60
2022-07-29T03:43:19.634Z,99221.80
2022-07-29T03:45:54.490Z,99214.20
2022-07-29T03:48:26.901Z,99215.20
2022-07-29T03:50:54.603Z,99219.20
2022-07-29T03:53:22.917Z,99217.60
2022-07-29T03:55:55.957Z,99217.40
2022-07-29T03:58:27.193Z,99222.20
2022-07-29T04:00:56.900Z,99226.80
2022-07-29T04:03:24.850Z,99224.00
2022-07-29T04:06:04.433Z,99227.20
2022-07-29T04:08:33.160Z,99232.80
2022-07-29T04:11:02.842Z,99234.40
2022-07-29T04:13:31.551Z,99235.20
2022-07-29T04:15:59.899Z,99234.80
2022-07-29T04:18:28.616Z,99231.00
2022-07-29T04:20:56.247Z,99229.20
2022-07-29T04:23:23.893Z,99229.00
2022-07-29T04:25:51.528Z,99224.20
2022-07-29T04:28:19.377Z,99226.60
2022-07-29T04:30:47.071Z,99222.60
2022-07-29T04:33:14.823Z,99225.40
2022-07-29T04:35:49.883Z,99218.60
2022-07-29T04:38:20.000Z,99216.40
2022-07-29T04:40:47.748Z,99220.00
2022-07-29T04:43:22.405Z,99211.60
2022-07-29T04:45:50.589Z,99210.40
2022-07-29T04:48:18.199Z,99206.60
2022-07-29T04:50:45.781Z,99210.00
2022-07-29T04:53:13.411Z,99214.40
2022-07-29T04:55:41.228Z,99210.40
2022-07-29T04:58:09.075Z,99216.40
2022-07-29T05:00:37.029Z,99217.20
2022-07-29T05:03:05.216Z,99213.40
2022-07-29T05:05:33.051Z,99214.60
2022-07-29T05:08:00.633Z,99215.40
2022-07-29T05:10:28.403Z,99214.00
2022-07-29T05:12:56.106Z,99213.80
2022-07-29T05:15:23.722Z,99212.20
2022-07-29T05:17:51.411Z,99208.60
2022-07-29T05:20:19.843Z,99201.00
2022-07-29T05:22:47.610Z,99203.80
2022-07-29T05:25:15.311Z,99206.20
2022-07-29T05:27:42.953Z,99203.40
2022-07-29T05:30:11.085Z,99201.40
2022-07-29T05:32:38.957Z,99198.00
2022-07-29T05:35:07.534Z,99198.80
2022-07-29T05:37:35.444Z,99193.60
2022-07-29T05:40:04.872Z,99197.20
2022-07-29T05:42:32.660Z,99197.40
2022-07-29T05:45:00.645Z,99201.00
2022-07-29T05:47:28.689Z,99195.00
2022-07-29T05:49:56.382Z,99189.40
2022-07-29T05:52:24.847Z,99188.80
2022-07-29T05:54:52.570Z,99186.40
2022-07-29T05:57:23.486Z,99186.60
2022-07-29T05:59:52.500Z,99188.60
2022-07-29T06:02:20.470Z,99189.00
2022-07-29T06:04:48.283Z,99184.60
2022-07-29T06:07:17.262Z,99182.60
2022-07-29T06:09:45.029Z,99192.00
2022-07-29T06:12:12.714Z,99193.80
2022-07-29T06:14:41.282Z,99194.40
2022-07-29T06:17:09.106Z,99193.20
2022-07-29T06:19:37.454Z,99196.80
2022-07-29T06:22:05.578Z,99197.20
2022-07-29T06:24:33.308Z,99196.20
2022-07-29T06:27:01.089Z,99197.20
2022-07-29T06:29:28.755Z,99202.60
2022-07-29T06:31:56.450Z,99197.60
2022-07-29T06:34:24.100Z,99196.60
2022-07-29T06:36:53.669Z,99206.20
2022-07-29T06:39:22.383Z,99204.40
2022-07-29T06:41:51.628Z,99203.80
2022-07-29T06:44:20.160Z,99213.20
2022-07-29T06:46:50.812Z,99212.80
2022-07-29T06:49:18.541Z,99210.80
2022-07-29T06:51:46.358Z,99216.00
2022-07-29T06:54:14.000Z,99214.20
2022-07-29T06:56:42.812Z,99218.20
2022-07-29T06:59:13.284Z,99216.00
2022-07-29T07:01:44.038Z,99210.60
2022-07-29T07:04:13.290Z,99211.40
2022-07-29T07:06:41.199Z,99210.80
2022-07-29T07:09:09.255Z,99211.00
2022-07-29T07:11:36.957Z,99207.80
2022-07-29T07:14:04.761Z,99209.20
2022-07-29T07:16:33.312Z,99207.80
2022-07-29T07:19:01.857Z,99206.80
2022-07-29T07:21:31.193Z,99203.20
2022-07-29T07:24:00.468Z,99199.60
2022-07-29T07:26:29.070Z,99201.20
2022-07-29T07:28:56.921Z,99203.20
2022-07-29T07:31:24.721Z,99204.60
2022-07-29T07:33:54.352Z,99206.20
2022-07-29T07:36:23.379Z,99210.00
2022-07-29T07:38:54.529Z,99205.80
2022-07-29T07:41:23.301Z,99205.40
2022-07-29T07:43:50.976Z,99200.80
2022-07-29T07:46:18.882Z,99198.40
2022-07-29T07:48:46.557Z,99193.20
2022-07-29T07:51:14.268Z,99195.40
2022-07-29T07:53:42.233Z,99194.80
2022-07-29T07:56:11.799Z,99195.00
2022-07-29T07:58:40.672Z,99194.20
2022-07-29T08:01:10.614Z,99198.00
2022-07-29T08:03:38.917Z,99197.80
2022-07-29T08:06:07.081Z,99199.20
2022-07-29T08:08:34.853Z,99195.60
2022-07-29T08:11:09.193Z,99195.20
2022-07-29T08:13:39.495Z,99205.80
2022-07-29T08:16:16.334Z,99195.20
2022-07-29T08:18:46.465Z,99189.40
2022-07-29T08:21:16.492Z,99197.20
2022-07-29T08:23:59.765Z,99196.80
2022-07-29T08:26:29.613Z,99195.40
2022-07-29T08:28:57.399Z,99203.20
2022-07-29T08:31:25.260Z,99198.60
2022-07-29T08:33:53.072Z,99196.40
2022-07-29T08:36:22.026Z,99205.40
2022-07-29T08:38:50.626Z,99201.40
2022-07-29T08:41:20.378Z,99197.40
2022-07-29T08:43:50.287Z,99204.80
2022-07-29T08:46:18.815Z,99203.00
2022-07-29T08:48:48.109Z,99203.60
2022-07-29T08:51:19.537Z,99198.60
2022-07-29T08:53:50.425Z,99191.80
2022-07-29T08:56:20.327Z,99202.00
2022-07-29T08:58:52.324Z,99205.20
2022-07-29T09:01:35.960Z,99209.20
2022-07-29T09:04:13.398Z,99210.20
2022-07-29T09:06:47.171Z,99216.20
2022-07-29T09:09:15.700Z,99210.20
2022-07-29T09:11:44.426Z,99207.60
2022-07-29T09:14:14.519Z,99204.80
2022-07-29T09:16:57.352Z,99197.80
2022-07-29T09:19:30.884Z,99203.80
2022-07-29T09:22:03.130Z,99211.00
2022-07-29T09:24:44.816Z,99200.80
2022-07-29T09:27:29.888Z,99196.80
2022-07-29T09:30:11.831Z,99194.00
2022-07-29T09:32:57.405Z,99195.00
2022-07-29T09:35:27.469Z,99194.40
2022-07-29T09:37:55.763Z,99188.20
2022-07-29T09:40:29.223Z,99193.60
2022-07-29T09:42:58.298Z,99188.20
2022-07-29T09:45:34.669Z,99188.60
2022-07-29T09:48:25.660Z,99185.00
2022-07-29T09:50:53.625Z,99178.00
2022-07-29T09:53:47.507Z,99175.80
2022-07-29T09:56:15.318Z,99174.80
2022-07-29T09:58:42.953Z,99164.80
2022-07-29T10:01:10.797Z,99173.00
2022-07-29T10:03:53.259Z,99168.60
2022-07-29T10:06:20.961Z,99168.60
2022-07-29T10:08:50.548Z,99167.80
2022-07-29T10:11:20.029Z,99160.40
2022-07-29T10:13:49.625Z,99161.60
2022-07-29T10:16:18.952Z,99154.80
2022-07-29T10:18:47.931Z,99152.00
2022-07-29T10:21:35.458Z,99154.40
2022-07-29T10:24:07.037Z,99155.20
2022-07-29T10:26:43.489Z,99164.20
2022-07-29T10:29:11.093Z,99165.00
2022-07-29T10:32:17.754Z,99159.40
2022-07-29T10:35:17.156Z,99161.60
2022-07-29T10:38:14.865Z,99151.80
2022-07-29T10:41:24.521Z,99153.00
2022-07-29T10:43:56.399Z,99150.00
2022-07-29T10:46:25.529Z,99144.80
2022-07-29T10:49:18.103Z,99143.60
2022-07-29T10:52:08.395Z,99145.20
2022-07-29T10:54:47.378Z,99147.40
2022-07-29T10:57:53.511Z,99143.60
2022-07-29T11:00:18.649Z,99147.80
2022-07-29T11:02:52.266Z,99145.60
2022-07-29T11:05:22.105Z,99150.40
2022-07-29T11:08:19.601Z,99155.80
2022-07-29T11:10:50.709Z,99157.80
2022-07-29T11:13:49.402Z,99160.80
2022-07-29T11:16:23.049Z,99163.20
2022-07-29T11:19:11.334Z,99166.40
2022-07-29T11:21:53.966Z,99168.20
2022-07-29T11:24:32.042Z,99168.20
2022-07-29T11:27:20.689Z,99170.00
2022-07-29T11:30:01.141Z,99177.40
2022-07-29T11:32:42.001Z,99180.20
2022-07-29T11:35:17.695Z,99178.80
2022-07-29T11:38:28.029Z,99179.60
2022-07-29T11:41:30.208Z,99179.80
2022-07-29T11:44:01.705Z,99179.80
2022-07-29T11:46:51.301Z,99176.80
2022-07-29T11:49:32.383Z,99175.20
2022-07-29T11:52:04.910Z,99165.00
2022-07-29T11:54:57.182Z,99160.80
2022-07-29T11:57:36.062Z,99166.00
2022-07-29T12:00:12.353Z,99158.60
2022-07-29T12:05:51.953Z,99151.40
2022-07-29T12:08:23.322Z,99144.00
2022-07-29T12:10:52.567Z,99147.00
2022-07-29T12:13:22.643Z,99145.80
2022-07-29T12:16:05.640Z,99144.60
2022-07-29T12:18:33.779Z,99146.20
2022-07-29T12:21:04.929Z,99153.60
2022-07-29T12:23:34.915Z,99165.40
2022-07-29T12:26:10.621Z,99171.40
2022-07-29T12:28:39.846Z,99180.20
2022-07-29T12:31:43.236Z,99175.60
2022-07-29T12:34:03.477Z,99175.60
2022-07-29T12:36:31.383Z,99164.00
2022-07-29T12:38:59.176Z,99160.80
2022-07-29T12:41:30.060Z,99154.40
2022-07-29T12:43:57.863Z,99156.60
2022-07-29T12:46:25.474Z,99149.60
2022-07-29T12:48:55.857Z,99146.80
2022-07-29T12:51:40.514Z,99144.40
2022-07-29T12:54:15.144Z,99141.20
2022-07-29T12:56:45.804Z,99132.00
2022-07-29T12:59:23.289Z,99126.80
2022-07-29T13:01:54.070Z,99126.80
2022-07-29T13:04:33.441Z,99127.80
2022-07-29T13:07:08.353Z,99127.00
2022-07-29T13:09:42.106Z,99121.60
2022-07-29T13:12:13.567Z,99123.60
2022-07-29T13:14:45.968Z,99124.40
2022-07-29T13:17:21.681Z,99128.40
2022-07-29T13:20:10.365Z,99121.60
2022-07-29T13:22:38.034Z,99119.40
2022-07-29T13:25:07.650Z,99111.20
2022-07-29T13:27:38.303Z,99110.60
2022-07-29T13:30:09.956Z,99098.80
2022-07-29T13:32:38.697Z,99097.00
2022-07-29T13:35:09.302Z,99102.00
2022-07-29T13:37:39.554Z,99114.00
2022-07-29T13:40:12.430Z,99122.00
2022-07-29T13:42:40.931Z,99131.80
2022-07-29T13:45:10.491Z,99136.80
2022-07-29T13:47:39.055Z,99142.80
2022-07-29T13:50:10.866Z,99144.80
2022-07-29T13:52:39.229Z,99149.20
2022-07-29T13:55:08.257Z,99154.80
2022-07-29T13:57:36.499Z,99159.60
2022-07-29T14:00:05.136Z,99150.40
2022-07-29T14:02:34.108Z,99137.20
2022-07-29T14:05:06.229Z,99125.00
2022-07-29T14:07:35.962Z,99110.00
2022-07-29T14:10:05.144Z,99101.00
2022-07-29T14:12:33.067Z,99087.40
2022-07-29T14:15:00.756Z,99079.00
2022-07-29T14:17:28.393Z,99064.80
2022-07-29T14:19:56.025Z,99069.00
2022-07-29T14:22:25.594Z,99064.00
2022-07-29T14:24:53.607Z,99053.80
2022-07-29T14:27:37.720Z,99040.60
2022-07-29T14:30:08.261Z,99039.80
2022-07-29T14:32:35.885Z,99034.20
2022-07-29T14:35:03.895Z,99032.80
2022-07-29T14:37:39.822Z,99030.20
2022-07-29T14:40:10.710Z,99031.00
2022-07-29T14:42:39.911Z,99034.80
2022-07-29T14:45:10.263Z,99035.00
2022-07-29T14:47:39.429Z,99036.00
2022-07-29T14:50:08.535Z,99038.20
2022-07-29T14:52:36.542Z,99034.20
2022-07-29T14:55:06.082Z,99034.60
2022-07-29T14:57:49.460Z,99039.00
2022-07-29T15:00:18.373Z,99038.80
2022-07-29T15:03:01.328Z,99042.40
2022-07-29T15:05:30.643Z,99045.80
2022-07-29T15:08:00.246Z,99041.20
2022-07-29T15:10:28.366Z,99043.20
2022-07-29T15:12:57.512Z,99053.60
2022-07-29T15:15:25.787Z,99056.20
2022-07-29T15:17:53.395Z,99066.00
2022-07-29T15:20:22.226Z,99070.40
2022-07-29T15:22:49.824Z,99070.60
2022-07-29T15:25:17.613Z,99069.60
2022-07-29T15:27:52.145Z,99065.20
2022-07-29T15:30:33.637Z,99069.20
2022-07-29T15:33:04.251Z,99066.60
2022-07-29T15:35:33.523Z,99066.00
2022-07-29T15:38:08.936Z,99066.00
2022-07-29T15:40:40.008Z,99067.00
2022-07-29T15:43:08.286Z,99074.40
2022-07-29T15:45:40.470Z,99076.80
2022-07-29T15:48:14.692Z,99080.80
2022-07-29T15:50:42.928Z,99074.00
2022-07-29T15:53:15.288Z,99076.40
2022-07-29T15:55:43.058Z,99076.00
2022-07-29T15:58:12.497Z,99072.80
2022-07-29T16:00:40.267Z,99076.00
2022-07-29T16:03:08.440Z,99076.00
2022-07-29T16:05:36.100Z,99076.00
2022-07-29T16:08:05.829Z,99073.80
2022-07-29T16:10:33.654Z,99066.80
2022-07-29T16:13:01.825Z,99067.60
2022-07-29T16:15:29.490Z,99061.20
2022-07-29T16:17:57.088Z,99059.40
2022-07-29T16:20:24.849Z,99061.60
2022-07-29T16:22:52.492Z,99065.00
2022-07-29T16:25:20.491Z,99064.20
2022-07-29T16:27:48.170Z,99065.20
2022-07-29T16:30:15.835Z,99066.80
2022-07-29T16:32:43.483Z,99065.00
2022-07-29T16:35:11.839Z,99063.80
2022-07-29T16:37:39.573Z,99061.00
2022-07-29T16:40:11.632Z,99061.20
2022-07-29T16:42:47.558Z,99057.20
2022-07-29T16:45:21.179Z,99060.60
2022-07-29T16:47:49.457Z,99059.80
2022-07-29T16:50:17.956Z,99075.40
2022-07-29T16:52:45.627Z,99076.20
2022-07-29T16:55:13.238Z,99081.00
2022-07-29T16:57:42.802Z,99077.80
2022-07-29T17:00:11.463Z,99082.00
2022-07-29T17:02:39.329Z,99092.00
2022-07-29T17:05:08.384Z,99096.80
2022-07-29T17:07:36.776Z,99102.80
2022-07-29T17:10:08.097Z,99098.80
2022-07-29T17:12:39.592Z,99093.00
2022-07-29T17:15:11.345Z,99089.80
2022-07-29T17:17:54.905Z,99072.20
2022-07-29T17:20:24.068Z,99051.20
2022-07-29T17:22:51.871Z,99021.60
2022-07-29T17:25:21.519Z,99000.00
2022-07-29T17:27:50.837Z,99000.40
2022-07-29T17:30:18.768Z,99012.40
2022-07-29T17:32:46.536Z,99026.40
2022-07-29T17:35:32.953Z,99027.20
2022-07-29T17:38:00.659Z,99028.80
2022-07-29T17:40:28.304Z,99018.20
2022-07-29T17:42:55.941Z,99014.40
2022-07-29T17:45:23.621Z,99009.00
2022-07-29T17:47:51.210Z,99008.00
2022-07-29T17:50:18.756Z,99011.80
2022-07-29T17:52:46.371Z,99017.60
2022-07-29T17:55:14.141Z,99020.80
2022-07-29T17:57:42.307Z,99018.60
2022-07-29T18:00:10.830Z,99019.20
2022-07-29T18:02:38.667Z,99024.40
2022-07-29T18:05:06.791Z,99022.20
2022-07-29T18:07:34.535Z,99025.60
2022-07-29T18:10:02.182Z,99021.20
2022-07-29T18:12:29.891Z,99026.40
2022-07-29T18:14:57.500Z,99022.80
2022-07-29T18:17:52.794Z,99014.60
2022-07-29T18:20:13.576Z,99011.40
2022-07-29T18:22:41.660Z,99010.20
2022-07-29T18:25:09.766Z,99014.00
2022-07-29T18:27:38.074Z,99017.40
2022-07-29T18:30:07.313Z,99011.60
2022-07-29T18:32:35.137Z,99013.00
2022-07-29T18:35:05.221Z,99010.60
2022-07-29T18:38:01.193Z,99014.40
2022-07-29T18:40:26.470Z,99026.80
2022-07-29T18:42:57.528Z,99033.80
2022-07-29T18:45:28.528Z,99032.60
2022-07-29T18:47:57.144Z,99028.00
2022-07-29T18:50:29.270Z,99045.20
2022-07-29T18:52:59.010Z,99041.20
2022-07-29T18:55:27.181Z,99049.80
2022-07-29T18:57:57.234Z,99049.00
2022-07-29T19:00:26.986Z,99043.20
2022-07-29T19:02:55.026Z,99043.00
2022-07-29T19:05:23.951Z,99037.60
2022-07-29T19:07:52.057Z,99050.20
2022-07-29T19:10:19.908Z,99047.60
2022-07-29T19:12:47.699Z,99053.60
2022-07-29T19:15:20.270Z,99049.40
2022-07-29T19:17:48.849Z,99051.20
2022-07-29T19:20:16.791Z,99057.00
2022-07-29T19:22:45.002Z,99057.40
2022-07-29T19:25:12.665Z,99056.20
2022-07-29T19:27:41.487Z,99053.20
2022-07-29T19:30:09.729Z,99045.40
2022-07-29T19:32:38.016Z,99041.80
2022-07-29T19:35:24.799Z,99041.40
2022-07-29T19:37:57.765Z,99035.40
2022-07-29T19:40:27.261Z,99039.20
2022-07-29T19:42:56.384Z,99037.60
2022-07-29T19:45:25.776Z,99046.40
2022-07-29T19:47:57.720Z,99046.20
2022-07-29T19:50:29.449Z,99043.00
2022-07-29T19:52:58.048Z,99044.20
2022-07-29T19:55:26.121Z,99047.20
2022-07-29T19:57:53.899Z,99045.60
2022-07-29T20:00:23.850Z,99054.60
2022-07-29T20:02:52.461Z,99050.80
2022-07-29T20:05:20.221Z,99047.20
2022-07-29T20:07:47.874Z,99042.40
2022-07-29T20:10:15.557Z,99035.60
2022-07-29T20:12:43.265Z,99031.20
2022-07-29T20:15:16.275Z,99027.00
2022-07-29T20:17:44.573Z,99031.60
2022-07-29T20:20:12.994Z,99025.60
2022-07-29T20:22:40.767Z,99030.40
2022-07-29T20:25:12.135Z,99028.40
2022-07-29T20:27:40.709Z,99030.40
2022-07-29T20:30:09.381Z,99029.40
2022-07-29T20:32:40.526Z,99031.00
2022-07-29T20:35:10.048Z,99034.80
2022-07-29T20:37:56.213Z,99025.40
2022-07-29T20:40:26.560Z,99024.80
2022-07-29T20:42:55.756Z,99019.60
2022-07-29T20:45:24.302Z,99014.00
2022-07-29T20:47:52.581Z,99010.20
2022-07-29T20:50:24.115Z,99016.60
2022-07-29T20:52:52.955Z,99019.00
2022-07-29T20:55:21.124Z,99020.00
2022-07-29T20:57:48.906Z,99016.20
2022-07-29T21:00:16.830Z,99017.00
2022-07-29T21:02:44.498Z,99010.40
2022-07-29T21:05:12.369Z,99018.40
2022-07-29T21:07:39.946Z,99018.20
2022-07-29T21:10:08.385Z,99017.00
2022-07-29T21:12:36.403Z,99017.00
2022-07-29T21:15:06.523Z,99009.80
2022-07-29T21:17:36.145Z,99004.80
2022-07-29T21:20:06.770Z,98997.00
2022-07-29T21:22:34.510Z,98994.40
2022-07-29T21:25:03.054Z,98993.00
2022-07-29T21:27:49.762Z,98988.40
2022-07-29T21:30:18.038Z,98984.00
2022-07-29T21:32:45.713Z,98979.60
2022-07-29T21:35:30.269Z,98981.00
2022-07-29T21:38:00.924Z,98983.80
2022-07-29T21:40:30.075Z,98985.40
2022-07-29T21:42:58.015Z,98991.80
2022-07-29T21:45:25.612Z,98994.00
2022-07-29T21:47:53.158Z,98991.40
2022-07-29T21:50:20.903Z,98992.00
2022-07-29T21:52:48.574Z,98990.40
2022-07-29T21:55:16.287Z,98992.40
2022-07-29T21:57:46.882Z,98984.80
2022-07-29T22:00:15.750Z,98983.00
2022-07-29T22:02:43.640Z,98982.20
2022-07-29T22:05:12.509Z,98984.40
2022-07-29T22:07:54.173Z,98983.20
2022-07-29T22:10:23.297Z,98978.80
2022-07-29T22:12:53.106Z,98976.20
2022-07-29T22:15:21.412Z,98975.20
2022-07-29T22:17:49.251Z,98974.80
2022-07-29T22:20:17.726Z,98976.40
2022-07-29T22:22:45.873Z,98973.40
2022-07-29T22:25:13.839Z,98974.40
2022-07-29T22:27:41.714Z,98977.80
2022-07-29T22:30:10.351Z,98977.60
2022-07-29T22:32:38.548Z,98979.60
2022-07-29T22:35:07.212Z,98978.60
2022-07-29T22:37:35.087Z,98973.00
2022-07-29T22:40:04.653Z,98970.20
2022-07-29T22:42:33.855Z,98959.80
2022-07-29T22:45:02.551Z,98954.60
2022-07-29T22:47:46.349Z,98956.00
2022-07-29T22:50:17.503Z,98943.80
2022-07-29T22:52:47.014Z,98941.80
2022-07-29T22:55:15.460Z,98946.60
2022-07-29T22:57:43.189Z,98944.20
2022-07-29T23:00:11.893Z,98942.20
2022-07-29T23:02:41.357Z,98946.00
2022-07-29T23:05:10.529Z,98943.40
2022-07-29T23:07:38.289Z,98939.40
2022-07-29T23:10:06.633Z,98940.00
2022-07-29T23:12:34.560Z,98935.20
2022-07-29T23:15:02.553Z,98933.40
2022-07-29T23:17:36.027Z,98926.00
2022-07-29T23:20:09.899Z,98920.00
2022-07-29T23:22:37.599Z,98914.40
2022-07-29T23:25:06.312Z,98913.40
2022-07-29T23:27:34.060Z,98905.60
2022-07-29T23:30:02.768Z,98897.60
2022-07-29T23:32:30.471Z,98895.80
2022-07-29T23:34:58.068Z,98896.80
2022-07-29T23:37:26.845Z,98889.80
2022-07-29T23:39:55.132Z,98888.20
2022-07-29T23:42:22.852Z,98887.20
2022-07-29T23:44:50.753Z,98886.00
2022-07-29T23:47:18.354Z,98882.00
2022-07-29T23:49:46.543Z,98884.00
2022-07-29T23:52:14.257Z,98886.20
2022-07-29T23:54:41.880Z,98879.20
2022-07-29T23:57:09.535Z,98871.20
2022-07-29T23:59:37.167Z,98871.80
